Station History

Weather Underground - logo

Station Historical Data
Daily Summary for January 8, 2018 Units:  Both    English   Metric
« Previous Day
Next Day »
Daily Weekly Monthly Yearly Custom
  High: Low: Average:
Temperature: 63.0 °F /  17.2 °C 53.8 °F /  12.1 °C 58.3 °F /  14.6 °C
Dew Point: 60.0 °F /  15.6 °C 51.6 °F /  10.9 °C 56.4 °F /  13.6 °C
Humidity: 96 % 88 % 93 %
Wind Speed: 4.6 mph /  7.4 km/h - 0.4 mph /  0.6 km/h
Wind Gust: 4.6 mph /  7.4 km/h - -
Wind:- - South
Pressure: 30.00 in /  1015.8 hPa 29.63 in /  1003.3 hPa -
Precipitation: 0.25 in /  6.35 mm    
Historical Graphs
 
 
Tabular Data for January 8, 2018
Time Temperature Dew Point Pressure Wind Wind Speed Wind Gust Humidity Rainfall Rate (Hourly)
00:40 55.0 °F /  12.8 °C 52.1 °F /  11.2 °C 30.00 in /  1015.8 hPa Calm     90 % 0.00 in /  0 mm
01:00 55.1 °F /  12.8 °C 51.9 °F /  11.1 °C 29.99 in /  1015.5 hPa Calm     89 % 0.00 in /  0 mm
01:06 55.0 °F /  12.8 °C 51.8 °F /  11 °C 29.99 in /  1015.5 hPa Calm     89 % 0.00 in /  0 mm
01:13 54.9 °F /  12.7 °C 51.7 °F /  10.9 °C 29.98 in /  1015.1 hPa Calm     89 % 0.00 in /  0 mm
01:19 54.9 °F /  12.7 °C 52.0 °F /  11.1 °C 29.98 in /  1015.1 hPa Calm     90 % 0.00 in /  0 mm
01:24 55.0 °F /  12.8 °C 52.1 °F /  11.2 °C 29.98 in /  1015.1 hPa Calm     90 % 0.00 in /  0 mm
01:29 54.9 °F /  12.7 °C 52.0 °F /  11.1 °C 29.98 in /  1015.1 hPa Calm     90 % 0.00 in /  0 mm
01:34 54.9 °F /  12.7 °C 52.0 °F /  11.1 °C 29.98 in /  1015.1 hPa Calm     90 % 0.00 in /  0 mm
01:39 54.8 °F /  12.7 °C 51.9 °F /  11.1 °C 29.98 in /  1015.1 hPa Calm     90 % 0.00 in /  0 mm
01:43 54.6 °F /  12.6 °C 51.7 °F /  10.9 °C 29.98 in /  1015.1 hPa Calm     90 % 0.00 in /  0 mm
01:46 54.5 °F /  12.5 °C 51.6 °F /  10.9 °C 29.98 in /  1015.1 hPa Calm     90 % 0.00 in /  0 mm
01:52 54.5 °F /  12.5 °C 51.9 °F /  11.1 °C 29.98 in /  1015.1 hPa Calm     91 % 0.00 in /  0 mm
01:57 54.4 °F /  12.4 °C 51.8 °F /  11 °C 29.98 in /  1015.1 hPa Calm     91 % 0.00 in /  0 mm
01:58 54.3 °F /  12.4 °C 51.7 °F /  10.9 °C 29.98 in /  1015.1 hPa Calm     91 % 0.00 in /  0 mm
02:04 54.2 °F /  12.3 °C 51.6 °F /  10.9 °C 29.97 in /  1014.8 hPa Calm     91 % 0.00 in /  0 mm
02:08 54.1 °F /  12.3 °C 51.8 °F /  11 °C 29.97 in /  1014.8 hPa Calm     92 % 0.00 in /  0 mm
02:11 54.0 °F /  12.2 °C 51.7 °F /  10.9 °C 29.97 in /  1014.8 hPa Calm     92 % 0.00 in /  0 mm
02:16 54.0 °F /  12.2 °C 51.7 °F /  10.9 °C 29.97 in /  1014.8 hPa Calm     92 % 0.00 in /  0 mm
02:20 54.0 °F /  12.2 °C 51.7 °F /  10.9 °C 29.97 in /  1014.8 hPa Calm     92 % 0.00 in /  0 mm
02:22 54.0 °F /  12.2 °C 51.7 °F /  10.9 °C 29.97 in /  1014.8 hPa Calm     92 % 0.00 in /  0 mm
02:27 53.9 °F /  12.2 °C 51.6 °F /  10.9 °C 29.97 in /  1014.8 hPa Calm     92 % 0.00 in /  0 mm
02:32 53.9 °F /  12.2 °C 51.6 °F /  10.9 °C 29.97 in /  1014.8 hPa Calm     92 % 0.00 in /  0 mm
02:38 53.8 °F /  12.1 °C 51.8 °F /  11 °C 29.97 in /  1014.8 hPa Calm     93 % 0.00 in /  0 mm
02:43 53.8 °F /  12.1 °C 51.8 °F /  11 °C 29.96 in /  1014.4 hPa Calm     93 % 0.00 in /  0 mm
02:48 53.8 °F /  12.1 °C 51.8 °F /  11 °C 29.96 in /  1014.4 hPa Calm     93 % 0.00 in /  0 mm
02:53 53.9 °F /  12.2 °C 51.9 °F /  11.1 °C 29.96 in /  1014.4 hPa Calm     93 % 0.00 in /  0 mm
02:57 53.9 °F /  12.2 °C 51.9 °F /  11.1 °C 29.96 in /  1014.4 hPa Calm     93 % 0.00 in /  0 mm
03:02 54.1 °F /  12.3 °C 52.1 °F /  11.2 °C 29.96 in /  1014.4 hPa Calm     93 % 0.00 in /  0 mm
03:09 54.2 °F /  12.3 °C 52.2 °F /  11.2 °C 29.96 in /  1014.4 hPa Calm     93 % 0.00 in /  0 mm
03:14 54.2 °F /  12.3 °C 52.2 °F /  11.2 °C 29.95 in /  1014.1 hPa Calm     93 % 0.00 in /  0 mm
03:19 54.3 °F /  12.4 °C 52.3 °F /  11.3 °C 29.95 in /  1014.1 hPa Calm     93 % 0.00 in /  0 mm
03:24 54.5 °F /  12.5 °C 52.5 °F /  11.4 °C 29.95 in /  1014.1 hPa Calm     93 % 0.00 in /  0 mm
03:29 54.5 °F /  12.5 °C 52.5 °F /  11.4 °C 29.95 in /  1014.1 hPa Calm     93 % 0.00 in /  0 mm
03:34 54.6 °F /  12.6 °C 52.6 °F /  11.4 °C 29.95 in /  1014.1 hPa East 1.2 mph /  1.9 km/h   93 % 0.00 in /  0 mm
03:39 54.7 °F /  12.6 °C 52.7 °F /  11.5 °C 29.95 in /  1014.1 hPa Calm     93 % 0.00 in /  0 mm
03:45 54.7 °F /  12.6 °C 52.7 °F /  11.5 °C 29.95 in /  1014.1 hPa Calm     93 % 0.00 in /  0 mm
03:50 54.7 °F /  12.6 °C 52.7 °F /  11.5 °C 29.95 in /  1014.1 hPa Calm     93 % 0.00 in /  0 mm
03:55 54.7 °F /  12.6 °C 52.7 °F /  11.5 °C 29.95 in /  1014.1 hPa Calm     93 % 0.00 in /  0 mm
03:58 54.7 °F /  12.6 °C 53.0 °F /  11.7 °C 29.94 in /  1013.8 hPa Calm     94 % 0.00 in /  0 mm
04:04 54.8 °F /  12.7 °C 53.1 °F /  11.7 °C 29.94 in /  1013.8 hPa Calm     94 % 0.00 in /  0 mm
04:10 54.7 °F /  12.6 °C 53.0 °F /  11.7 °C 29.95 in /  1014.1 hPa Calm     94 % 0.00 in /  0 mm
04:15 54.6 °F /  12.6 °C 52.9 °F /  11.6 °C 29.94 in /  1013.8 hPa Calm     94 % 0.01 in /  0.25 mm
04:20 54.5 °F /  12.5 °C 52.8 °F /  11.6 °C 29.94 in /  1013.8 hPa Calm     94 % 0.01 in /  0.25 mm
04:26 54.4 °F /  12.4 °C 52.7 °F /  11.5 °C 29.94 in /  1013.8 hPa Calm     94 % 0.01 in /  0.25 mm
04:31 54.5 °F /  12.5 °C 52.8 °F /  11.6 °C 29.94 in /  1013.8 hPa Calm     94 % 0.02 in /  0.51 mm
04:37 54.5 °F /  12.5 °C 53.1 °F /  11.7 °C 29.95 in /  1014.1 hPa Calm     95 % 0.02 in /  0.51 mm
04:42 54.5 °F /  12.5 °C 53.1 °F /  11.7 °C 29.95 in /  1014.1 hPa Calm     95 % 0.02 in /  0.51 mm
04:46 54.5 °F /  12.5 °C 53.1 °F /  11.7 °C 29.95 in /  1014.1 hPa Calm     95 % 0.03 in /  0.76 mm
04:52 54.5 °F /  12.5 °C 53.1 °F /  11.7 °C 29.95 in /  1014.1 hPa Calm     95 % 0.03 in /  0.76 mm
04:57 54.5 °F /  12.5 °C 53.1 °F /  11.7 °C 29.95 in /  1014.1 hPa Calm     95 % 0.04 in /  1.02 mm
05:04 54.5 °F /  12.5 °C 53.1 °F /  11.7 °C 29.95 in /  1014.1 hPa Calm     95 % 0.04 in /  1.02 mm
05:06 54.5 °F /  12.5 °C 53.1 °F /  11.7 °C 29.95 in /  1014.1 hPa Calm     95 % 0.05 in /  1.27 mm
05:12 54.5 °F /  12.5 °C 53.1 °F /  11.7 °C 29.95 in /  1014.1 hPa Calm     95 % 0.04 in /  1.02 mm
05:15 54.4 °F /  12.4 °C 53.0 °F /  11.7 °C 29.95 in /  1014.1 hPa Calm     95 % 0.05 in /  1.27 mm
05:20 54.2 °F /  12.3 °C 52.8 °F /  11.6 °C 29.95 in /  1014.1 hPa NNW 1.2 mph /  1.9 km/h 1.2 mph /  1.9 km/h 95 % 0.05 in /  1.27 mm
05:26 54.2 °F /  12.3 °C 52.5 °F /  11.4 °C 29.95 in /  1014.1 hPa Calm     94 % 0.05 in /  1.27 mm
05:32 54.3 °F /  12.4 °C 52.6 °F /  11.4 °C 29.96 in /  1014.4 hPa Calm     94 % 0.04 in /  1.02 mm
05:37 54.2 °F /  12.3 °C 52.5 °F /  11.4 °C 29.96 in /  1014.4 hPa Calm     94 % 0.05 in /  1.27 mm
05:43 54.2 °F /  12.3 °C 52.5 °F /  11.4 °C 29.96 in /  1014.4 hPa NW 1.2 mph /  1.9 km/h 1.2 mph /  1.9 km/h 94 % 0.05 in /  1.27 mm
05:50 54.2 °F /  12.3 °C 52.5 °F /  11.4 °C 29.97 in /  1014.8 hPa NW 1.2 mph /  1.9 km/h 1.2 mph /  1.9 km/h 94 % 0.04 in /  1.02 mm
05:55 54.1 °F /  12.3 °C 52.7 °F /  11.5 °C 29.97 in /  1014.8 hPa NW 1.2 mph /  1.9 km/h   95 % 0.05 in /  1.27 mm
05:59 54.1 °F /  12.3 °C 52.7 °F /  11.5 °C 29.97 in /  1014.8 hPa North 1.2 mph /  1.9 km/h 1.2 mph /  1.9 km/h 95 % 0.04 in /  1.02 mm
06:02 54.1 °F /  12.3 °C 52.7 °F /  11.5 °C 29.97 in /  1014.8 hPa WNW 1.2 mph /  1.9 km/h 1.2 mph /  1.9 km/h 95 % 0.04 in /  1.02 mm
06:07 54.1 °F /  12.3 °C 52.4 °F /  11.3 °C 29.98 in /  1015.1 hPa Calm     94 % 0.04 in /  1.02 mm
06:10 54.0 °F /  12.2 °C 52.3 °F /  11.3 °C 29.98 in /  1015.1 hPa Calm     94 % 0.04 in /  1.02 mm
06:15 54.0 °F /  12.2 °C 52.3 °F /  11.3 °C 29.98 in /  1015.1 hPa Calm     94 % 0.04 in /  1.02 mm
06:21 54.1 °F /  12.3 °C 52.4 °F /  11.3 °C 29.98 in /  1015.1 hPa Calm     94 % 0.03 in /  0.76 mm
06:27 54.1 °F /  12.3 °C 52.4 °F /  11.3 °C 29.98 in /  1015.1 hPa WNW 1.2 mph /  1.9 km/h   94 % 0.04 in /  1.02 mm
06:31 54.1 °F /  12.3 °C 52.7 °F /  11.5 °C 29.98 in /  1015.1 hPa Calm     95 % 0.04 in /  1.02 mm
06:37 54.1 °F /  12.3 °C 52.7 °F /  11.5 °C 29.97 in /  1014.8 hPa NW 1.2 mph /  1.9 km/h 1.2 mph /  1.9 km/h 95 % 0.03 in /  0.76 mm
06:42 54.0 °F /  12.2 °C 52.6 °F /  11.4 °C 29.97 in /  1014.8 hPa Calm     95 % 0.03 in /  0.76 mm
06:47 54.0 °F /  12.2 °C 52.6 °F /  11.4 °C 29.97 in /  1014.8 hPa WNW 1.2 mph /  1.9 km/h 1.2 mph /  1.9 km/h 95 % 0.03 in /  0.76 mm
06:54 54.0 °F /  12.2 °C 52.3 °F /  11.3 °C 29.97 in /  1014.8 hPa Calm   0.1 mph /  0.2 km/h 94 % 0.03 in /  0.76 mm
07:00 54.0 °F /  12.2 °C 52.3 °F /  11.3 °C 29.97 in /  1014.8 hPa WNW 1.2 mph /  1.9 km/h 1.2 mph /  1.9 km/h 94 % 0.03 in /  0.76 mm
07:06 54.1 °F /  12.3 °C 52.1 °F /  11.2 °C 29.96 in /  1014.4 hPa Calm     93 % 0.02 in /  0.51 mm
07:12 54.1 °F /  12.3 °C 52.1 °F /  11.2 °C 29.96 in /  1014.4 hPa Calm     93 % 0.02 in /  0.51 mm
07:18 54.0 °F /  12.2 °C 52.0 °F /  11.1 °C 29.96 in /  1014.4 hPa Calm     93 % 0.02 in /  0.51 mm
07:23 54.0 °F /  12.2 °C 52.0 °F /  11.1 °C 29.96 in /  1014.4 hPa Calm     93 % 0.02 in /  0.51 mm
07:28 54.0 °F /  12.2 °C 52.0 °F /  11.1 °C 29.96 in /  1014.4 hPa Calm     93 % 0.01 in /  0.25 mm
07:34 54.0 °F /  12.2 °C 52.0 °F /  11.1 °C 29.96 in /  1014.4 hPa Calm     93 % 0.01 in /  0.25 mm
07:39 54.0 °F /  12.2 °C 52.0 °F /  11.1 °C 29.96 in /  1014.4 hPa Calm     93 % 0.01 in /  0.25 mm
07:41 54.0 °F /  12.2 °C 52.3 °F /  11.3 °C 29.96 in /  1014.4 hPa Calm     94 % 0.01 in /  0.25 mm
07:46 54.1 °F /  12.3 °C 52.4 °F /  11.3 °C 29.95 in /  1014.1 hPa Calm     94 % 0.01 in /  0.25 mm
07:54 54.3 °F /  12.4 °C 52.6 °F /  11.4 °C 29.96 in /  1014.4 hPa Calm     94 % 0.00 in /  0 mm
07:55 54.4 °F /  12.4 °C 52.7 °F /  11.5 °C 29.96 in /  1014.4 hPa Calm     94 % 0.00 in /  0 mm
08:00 54.4 °F /  12.4 °C 52.7 °F /  11.5 °C 29.95 in /  1014.1 hPa Calm     94 % 0.00 in /  0 mm
08:07 54.5 °F /  12.5 °C 53.1 °F /  11.7 °C 29.95 in /  1014.1 hPa Calm     95 % 0.00 in /  0 mm
08:13 54.7 °F /  12.6 °C 53.3 °F /  11.8 °C 29.95 in /  1014.1 hPa SE 1.2 mph /  1.9 km/h 1.2 mph /  1.9 km/h 95 % 0.00 in /  0 mm
08:19 54.9 °F /  12.7 °C 53.5 °F /  11.9 °C 29.95 in /  1014.1 hPa ESE 1.2 mph /  1.9 km/h   95 % 0.00 in /  0 mm
08:25 55.0 °F /  12.8 °C 53.6 °F /  12 °C 29.95 in /  1014.1 hPa East 1.0 mph /  1.6 km/h 1.0 mph /  1.6 km/h 95 % 0.00 in /  0 mm
08:30 55.1 °F /  12.8 °C 53.7 °F /  12.1 °C 29.95 in /  1014.1 hPa East 1.2 mph /  1.9 km/h   95 % 0.00 in /  0 mm
08:35 55.1 °F /  12.8 °C 53.7 °F /  12.1 °C 29.95 in /  1014.1 hPa Calm     95 % 0.00 in /  0 mm
08:40 55.2 °F /  12.9 °C 53.8 °F /  12.1 °C 29.95 in /  1014.1 hPa Calm     95 % 0.00 in /  0 mm
08:43 55.2 °F /  12.9 °C 53.8 °F /  12.1 °C 29.95 in /  1014.1 hPa Calm     95 % 0.00 in /  0 mm
08:46 55.3 °F /  12.9 °C 54.2 °F /  12.3 °C 29.95 in /  1014.1 hPa Calm     96 % 0.00 in /  0 mm
08:48 55.3 °F /  12.9 °C 54.2 °F /  12.3 °C 29.95 in /  1014.1 hPa Calm     96 % 0.00 in /  0 mm
08:53 55.4 °F /  13 °C 54.3 °F /  12.4 °C 29.95 in /  1014.1 hPa Calm     96 % 0.00 in /  0 mm
08:59 55.5 °F /  13.1 °C 54.4 °F /  12.4 °C 29.95 in /  1014.1 hPa Calm     96 % 0.01 in /  0.25 mm
09:04 55.6 °F /  13.1 °C 54.5 °F /  12.5 °C 29.95 in /  1014.1 hPa Calm     96 % 0.01 in /  0.25 mm
09:06 55.6 °F /  13.1 °C 54.5 °F /  12.5 °C 29.94 in /  1013.8 hPa Calm     96 % 0.01 in /  0.25 mm
09:11 55.8 °F /  13.2 °C 54.7 °F /  12.6 °C 29.95 in /  1014.1 hPa Calm     96 % 0.01 in /  0.25 mm
09:14 55.9 °F /  13.3 °C 54.8 °F /  12.7 °C 29.94 in /  1013.8 hPa Calm     96 % 0.01 in /  0.25 mm
09:16 55.9 °F /  13.3 °C 54.8 °F /  12.7 °C 29.94 in /  1013.8 hPa Calm     96 % 0.01 in /  0.25 mm
09:20 56.1 °F /  13.4 °C 55.0 °F /  12.8 °C 29.94 in /  1013.8 hPa Calm     96 % 0.01 in /  0.25 mm
09:23 56.1 °F /  13.4 °C 55.0 °F /  12.8 °C 29.94 in /  1013.8 hPa Calm     96 % 0.01 in /  0.25 mm
09:28 56.2 °F /  13.4 °C 55.1 °F /  12.8 °C 29.94 in /  1013.8 hPa Calm     96 % 0.01 in /  0.25 mm
09:29 56.2 °F /  13.4 °C 55.1 °F /  12.8 °C 29.94 in /  1013.8 hPa Calm     96 % 0.01 in /  0.25 mm
09:34 56.3 °F /  13.5 °C 55.2 °F /  12.9 °C 29.94 in /  1013.8 hPa East 1.2 mph /  1.9 km/h 1.2 mph /  1.9 km/h 96 % 0.01 in /  0.25 mm
09:36 56.4 °F /  13.6 °C 55.3 °F /  12.9 °C 29.94 in /  1013.8 hPa Calm     96 % 0.01 in /  0.25 mm
09:41 56.5 °F /  13.6 °C 55.4 °F /  13 °C 29.94 in /  1013.8 hPa NNW 1.0 mph /  1.6 km/h 1.0 mph /  1.6 km/h 96 % 0.01 in /  0.25 mm
09:44 56.6 °F /  13.7 °C 55.5 °F /  13.1 °C 29.93 in /  1013.4 hPa NNW 1.2 mph /  1.9 km/h   96 % 0.01 in /  0.25 mm
09:49 56.7 °F /  13.7 °C 55.6 °F /  13.1 °C 29.93 in /  1013.4 hPa Calm     96 % 0.02 in /  0.51 mm
10:00 57.2 °F /  14 °C 56.1 °F /  13.4 °C 29.93 in /  1013.4 hPa Calm     96 % 0.01 in /  0.25 mm
10:03 57.3 °F /  14.1 °C 56.2 °F /  13.4 °C 29.93 in /  1013.4 hPa Calm     96 % 0.01 in /  0.25 mm
10:08 57.4 °F /  14.1 °C 56.0 °F /  13.3 °C 29.93 in /  1013.4 hPa Calm     95 % 0.01 in /  0.25 mm
10:12 57.6 °F /  14.2 °C 56.2 °F /  13.4 °C 29.93 in /  1013.4 hPa Calm     95 % 0.01 in /  0.25 mm
10:14 57.6 °F /  14.2 °C 56.2 °F /  13.4 °C 29.93 in /  1013.4 hPa Calm     95 % 0.01 in /  0.25 mm
10:19 57.8 °F /  14.3 °C 56.4 °F /  13.6 °C 29.92 in /  1013.1 hPa NNW 1.2 mph /  1.9 km/h 1.2 mph /  1.9 km/h 95 % 0.01 in /  0.25 mm
10:23 57.9 °F /  14.4 °C 56.2 °F /  13.4 °C 29.92 in /  1013.1 hPa NW 1.2 mph /  1.9 km/h 1.2 mph /  1.9 km/h 94 % 0.01 in /  0.25 mm
10:25 58.0 °F /  14.4 °C 56.3 °F /  13.5 °C 29.92 in /  1013.1 hPa NW 1.2 mph /  1.9 km/h   94 % 0.01 in /  0.25 mm
10:30 58.2 °F /  14.6 °C 56.5 °F /  13.6 °C 29.92 in /  1013.1 hPa Calm     94 % 0.01 in /  0.25 mm
10:32 58.3 °F /  14.6 °C 56.6 °F /  13.7 °C 29.92 in /  1013.1 hPa Calm     94 % 0.01 in /  0.25 mm
10:33 58.3 °F /  14.6 °C 56.6 °F /  13.7 °C 29.92 in /  1013.1 hPa Calm     94 % 0.01 in /  0.25 mm
10:39 58.5 °F /  14.7 °C 56.5 °F /  13.6 °C 29.92 in /  1013.1 hPa Calm     93 % 0.01 in /  0.25 mm
10:44 58.6 °F /  14.8 °C 56.6 °F /  13.7 °C 29.92 in /  1013.1 hPa Calm     93 % 0.01 in /  0.25 mm
10:49 58.7 °F /  14.8 °C 56.7 °F /  13.7 °C 29.91 in /  1012.8 hPa Calm     93 % 0.00 in /  0 mm
10:54 58.8 °F /  14.9 °C 56.8 °F /  13.8 °C 29.91 in /  1012.8 hPa Calm     93 % 0.00 in /  0 mm
10:59 58.9 °F /  14.9 °C 56.9 °F /  13.8 °C 29.91 in /  1012.8 hPa Calm     93 % 0.00 in /  0 mm
11:04 59.0 °F /  15 °C 57.0 °F /  13.9 °C 29.91 in /  1012.8 hPa Calm     93 % 0.00 in /  0 mm
11:10 59.1 °F /  15.1 °C 57.1 °F /  13.9 °C 29.90 in /  1012.4 hPa Calm     93 % 0.00 in /  0 mm
11:16 59.3 °F /  15.2 °C 57.3 °F /  14.1 °C 29.90 in /  1012.4 hPa Calm     93 % 0.01 in /  0.25 mm
11:20 59.5 °F /  15.3 °C 57.5 °F /  14.2 °C 29.89 in /  1012.1 hPa Calm     93 % 0.01 in /  0.25 mm
11:26 59.7 °F /  15.4 °C 57.7 °F /  14.3 °C 29.89 in /  1012.1 hPa Calm     93 % 0.01 in /  0.25 mm
11:30 59.8 °F /  15.4 °C 58.1 °F /  14.5 °C 29.88 in /  1011.7 hPa Calm     94 % 0.01 in /  0.25 mm
11:35 60.0 °F /  15.6 °C 58.0 °F /  14.4 °C 29.88 in /  1011.7 hPa Calm     93 % 0.01 in /  0.25 mm
11:40 60.1 °F /  15.6 °C 58.1 °F /  14.5 °C 29.89 in /  1012.1 hPa Calm     93 % 0.01 in /  0.25 mm
11:45 60.2 °F /  15.7 °C 58.2 °F /  14.6 °C 29.88 in /  1011.7 hPa Calm     93 % 0.01 in /  0.25 mm
11:50 60.3 °F /  15.7 °C 58.3 °F /  14.6 °C 29.88 in /  1011.7 hPa NW 1.2 mph /  1.9 km/h   93 % 0.01 in /  0.25 mm
11:56 60.3 °F /  15.7 °C 58.3 °F /  14.6 °C 29.88 in /  1011.7 hPa Calm     93 % 0.01 in /  0.25 mm
12:01 60.3 °F /  15.7 °C 58.3 °F /  14.6 °C 29.88 in /  1011.7 hPa Calm     93 % 0.01 in /  0.25 mm
12:06 60.4 °F /  15.8 °C 58.4 °F /  14.7 °C 29.88 in /  1011.7 hPa NW 1.2 mph /  1.9 km/h   93 % 0.01 in /  0.25 mm
12:12 60.4 °F /  15.8 °C 58.4 °F /  14.7 °C 29.87 in /  1011.4 hPa WNW 2.3 mph /  3.7 km/h 2.3 mph /  3.7 km/h 93 % 0.01 in /  0.25 mm
12:17 60.4 °F /  15.8 °C 58.4 °F /  14.7 °C 29.87 in /  1011.4 hPa Calm     93 % 0.00 in /  0 mm
12:25 60.4 °F /  15.8 °C 58.4 °F /  14.7 °C 29.87 in /  1011.4 hPa Calm     93 % 0.00 in /  0 mm
12:30 60.3 °F /  15.7 °C 58.0 °F /  14.4 °C 29.86 in /  1011.1 hPa Calm     92 % 0.00 in /  0 mm
12:36 60.1 °F /  15.6 °C 57.8 °F /  14.3 °C 29.86 in /  1011.1 hPa Calm     92 % 0.00 in /  0 mm
12:41 60.1 °F /  15.6 °C 58.1 °F /  14.5 °C 29.85 in /  1010.7 hPa Calm     93 % 0.00 in /  0 mm
12:52 60.2 °F /  15.7 °C 58.2 °F /  14.6 °C 29.85 in /  1010.7 hPa Calm     93 % 0.00 in /  0 mm
13:05 60.3 °F /  15.7 °C 58.3 °F /  14.6 °C 29.84 in /  1010.4 hPa Calm     93 % 0.00 in /  0 mm
13:13 60.3 °F /  15.7 °C 58.0 °F /  14.4 °C 29.83 in /  1010 hPa NW 2.0 mph /  3.2 km/h 2.0 mph /  3.2 km/h 92 % 0.00 in /  0 mm
13:20 60.5 °F /  15.8 °C 58.5 °F /  14.7 °C 29.82 in /  1009.7 hPa NW 2.0 mph /  3.2 km/h 2.0 mph /  3.2 km/h 93 % 0.01 in /  0.25 mm
13:26 60.8 °F /  16 °C 58.8 °F /  14.9 °C 29.82 in /  1009.7 hPa WNW 2.3 mph /  3.7 km/h 2.3 mph /  3.7 km/h 93 % 0.01 in /  0.25 mm
13:31 60.9 °F /  16.1 °C 58.6 °F /  14.8 °C 29.83 in /  1010 hPa WNW 1.0 mph /  1.6 km/h 1.0 mph /  1.6 km/h 92 % 0.01 in /  0.25 mm
13:33 60.9 °F /  16.1 °C 58.6 °F /  14.8 °C 29.82 in /  1009.7 hPa WNW 1.2 mph /  1.9 km/h 1.2 mph /  1.9 km/h 92 % 0.01 in /  0.25 mm
13:39 61.1 °F /  16.2 °C 58.5 °F /  14.7 °C 29.82 in /  1009.7 hPa NW 4.6 mph /  7.4 km/h 4.6 mph /  7.4 km/h 91 % 0.01 in /  0.25 mm
13:43 61.3 °F /  16.3 °C 58.7 °F /  14.8 °C 29.82 in /  1009.7 hPa NW 2.3 mph /  3.7 km/h 2.3 mph /  3.7 km/h 91 % 0.01 in /  0.25 mm
13:48 61.4 °F /  16.3 °C 58.4 °F /  14.7 °C 29.81 in /  1009.4 hPa NW 2.3 mph /  3.7 km/h 2.3 mph /  3.7 km/h 90 % 0.01 in /  0.25 mm
13:53 61.8 °F /  16.6 °C 58.8 °F /  14.9 °C 29.81 in /  1009.4 hPa NW 2.3 mph /  3.7 km/h 2.3 mph /  3.7 km/h 90 % 0.01 in /  0.25 mm
13:59 62.0 °F /  16.7 °C 58.7 °F /  14.8 °C 29.80 in /  1009 hPa NE 3.5 mph /  5.6 km/h 3.5 mph /  5.6 km/h 89 % 0.01 in /  0.25 mm
14:04 62.1 °F /  16.7 °C 59.1 °F /  15.1 °C 29.80 in /  1009 hPa North 3.0 mph /  4.8 km/h 3.0 mph /  4.8 km/h 90 % 0.01 in /  0.25 mm
14:09 62.1 °F /  16.7 °C 59.1 °F /  15.1 °C 29.80 in /  1009 hPa NNW 3.5 mph /  5.6 km/h 3.5 mph /  5.6 km/h 90 % 0.01 in /  0.25 mm
14:12 62.1 °F /  16.7 °C 59.1 °F /  15.1 °C 29.80 in /  1009 hPa NW 3.5 mph /  5.6 km/h 3.5 mph /  5.6 km/h 90 % 0.01 in /  0.25 mm
14:17 62.1 °F /  16.7 °C 58.8 °F /  14.9 °C 29.80 in /  1009 hPa NNW 2.3 mph /  3.7 km/h 2.3 mph /  3.7 km/h 89 % 0.00 in /  0 mm
14:23 62.1 °F /  16.7 °C 59.1 °F /  15.1 °C 29.79 in /  1008.7 hPa NW 1.2 mph /  1.9 km/h 1.2 mph /  1.9 km/h 90 % 0.00 in /  0 mm
14:28 62.1 °F /  16.7 °C 58.8 °F /  14.9 °C 29.79 in /  1008.7 hPa WNW 3.5 mph /  5.6 km/h 3.5 mph /  5.6 km/h 89 % 0.00 in /  0 mm
14:34 62.2 °F /  16.8 °C 58.9 °F /  14.9 °C 29.79 in /  1008.7 hPa WNW 3.5 mph /  5.6 km/h 3.5 mph /  5.6 km/h 89 % 0.00 in /  0 mm
14:40 62.4 °F /  16.9 °C 59.1 °F /  15.1 °C 29.79 in /  1008.7 hPa NNW 3.5 mph /  5.6 km/h 3.5 mph /  5.6 km/h 89 % 0.00 in /  0 mm
14:46 62.6 °F /  17 °C 59.3 °F /  15.2 °C 29.78 in /  1008.4 hPa NW 2.3 mph /  3.7 km/h 2.3 mph /  3.7 km/h 89 % 0.00 in /  0 mm
14:53 62.7 °F /  17.1 °C 59.4 °F /  15.2 °C 29.78 in /  1008.4 hPa NW 3.5 mph /  5.6 km/h 3.5 mph /  5.6 km/h 89 % 0.00 in /  0 mm
14:54 62.7 °F /  17.1 °C 59.4 °F /  15.2 °C 29.78 in /  1008.4 hPa NW 3.5 mph /  5.6 km/h 3.5 mph /  5.6 km/h 89 % 0.00 in /  0 mm
14:56 62.8 °F /  17.1 °C 59.5 °F /  15.3 °C 29.78 in /  1008.4 hPa NW 2.3 mph /  3.7 km/h 2.3 mph /  3.7 km/h 89 % 0.00 in /  0 mm
14:57 62.7 °F /  17.1 °C 59.4 °F /  15.2 °C 29.78 in /  1008.4 hPa North 2.3 mph /  3.7 km/h 2.3 mph /  3.7 km/h 89 % 0.00 in /  0 mm
14:58 62.7 °F /  17.1 °C 59.4 °F /  15.2 °C 29.78 in /  1008.4 hPa WNW 2.3 mph /  3.7 km/h 2.3 mph /  3.7 km/h 89 % 0.00 in /  0 mm
15:00 62.8 °F /  17.1 °C 59.5 °F /  15.3 °C 29.77 in /  1008 hPa WNW 2.3 mph /  3.7 km/h 2.3 mph /  3.7 km/h 89 % 0.00 in /  0 mm
15:01 62.7 °F /  17.1 °C 59.4 °F /  15.2 °C 29.77 in /  1008 hPa NW 1.2 mph /  1.9 km/h 1.2 mph /  1.9 km/h 89 % 0.00 in /  0 mm
15:03 62.8 °F /  17.1 °C 59.5 °F /  15.3 °C 29.77 in /  1008 hPa NW 1.2 mph /  1.9 km/h 1.2 mph /  1.9 km/h 89 % 0.00 in /  0 mm
15:08 62.8 °F /  17.1 °C 59.2 °F /  15.1 °C 29.78 in /  1008.4 hPa Calm   0.2 mph /  0.3 km/h 88 % 0.00 in /  0 mm
15:11 62.9 °F /  17.2 °C 59.3 °F /  15.2 °C 29.78 in /  1008.4 hPa WNW 1.2 mph /  1.9 km/h 1.2 mph /  1.9 km/h 88 % 0.00 in /  0 mm
15:13 62.9 °F /  17.2 °C 59.3 °F /  15.2 °C 29.78 in /  1008.4 hPa WNW 1.2 mph /  1.9 km/h   88 % 0.00 in /  0 mm
15:17 63.0 °F /  17.2 °C 59.4 °F /  15.2 °C 29.78 in /  1008.4 hPa Calm     88 % 0.00 in /  0 mm
15:18 63.0 °F /  17.2 °C 59.4 °F /  15.2 °C 29.78 in /  1008.4 hPa Calm     88 % 0.00 in /  0 mm
15:19 63.0 °F /  17.2 °C 59.4 °F /  15.2 °C 29.78 in /  1008.4 hPa Calm     88 % 0.00 in /  0 mm
15:23 62.9 °F /  17.2 °C 59.6 °F /  15.3 °C 29.78 in /  1008.4 hPa Calm     89 % 0.00 in /  0 mm
15:28 62.8 °F /  17.1 °C 59.5 °F /  15.3 °C 29.78 in /  1008.4 hPa Calm     89 % 0.00 in /  0 mm
15:32 62.6 °F /  17 °C 59.6 °F /  15.3 °C 29.78 in /  1008.4 hPa Calm     90 % 0.00 in /  0 mm
15:36 62.4 °F /  16.9 °C 59.4 °F /  15.2 °C 29.78 in /  1008.4 hPa SW 1.2 mph /  1.9 km/h 1.2 mph /  1.9 km/h 90 % 0.01 in /  0.25 mm
15:40 62.2 °F /  16.8 °C 59.5 °F /  15.3 °C 29.79 in /  1008.7 hPa East 1.2 mph /  1.9 km/h   91 % 0.01 in /  0.25 mm
15:44 62.0 °F /  16.7 °C 59.6 °F /  15.3 °C 29.79 in /  1008.7 hPa East 1.2 mph /  1.9 km/h   92 % 0.02 in /  0.51 mm
15:48 61.8 °F /  16.6 °C 59.8 °F /  15.4 °C 29.79 in /  1008.7 hPa Calm     93 % 0.02 in /  0.51 mm
15:50 61.7 °F /  16.5 °C 59.7 °F /  15.4 °C 29.79 in /  1008.7 hPa East 1.2 mph /  1.9 km/h 1.2 mph /  1.9 km/h 93 % 0.02 in /  0.51 mm
15:51 61.7 °F /  16.5 °C 59.7 °F /  15.4 °C 29.79 in /  1008.7 hPa East 1.2 mph /  1.9 km/h   93 % 0.02 in /  0.51 mm
15:53 61.6 °F /  16.4 °C 59.9 °F /  15.5 °C 29.79 in /  1008.7 hPa Calm   0.1 mph /  0.2 km/h 94 % 0.03 in /  0.76 mm
15:55 61.6 °F /  16.4 °C 59.9 °F /  15.5 °C 29.79 in /  1008.7 hPa Calm     94 % 0.03 in /  0.76 mm
15:59 61.6 °F /  16.4 °C 59.9 °F /  15.5 °C 29.79 in /  1008.7 hPa East 2.3 mph /  3.7 km/h 2.3 mph /  3.7 km/h 94 % 0.03 in /  0.76 mm
16:03 61.5 °F /  16.4 °C 59.8 °F /  15.4 °C 29.79 in /  1008.7 hPa East 2.3 mph /  3.7 km/h 2.3 mph /  3.7 km/h 94 % 0.03 in /  0.76 mm
16:04 61.5 °F /  16.4 °C 59.8 °F /  15.4 °C 29.79 in /  1008.7 hPa East 1.2 mph /  1.9 km/h 1.2 mph /  1.9 km/h 94 % 0.04 in /  1.02 mm
16:05 61.4 °F /  16.3 °C 60.0 °F /  15.6 °C 29.80 in /  1009 hPa East 1.2 mph /  1.9 km/h 1.2 mph /  1.9 km/h 95 % 0.04 in /  1.02 mm
16:10 61.4 °F /  16.3 °C 60.0 °F /  15.6 °C 29.79 in /  1008.7 hPa East 1.2 mph /  1.9 km/h   95 % 0.04 in /  1.02 mm
16:11 61.3 °F /  16.3 °C 59.9 °F /  15.5 °C 29.79 in /  1008.7 hPa East 1.2 mph /  1.9 km/h 1.2 mph /  1.9 km/h 95 % 0.04 in /  1.02 mm
16:13 61.3 °F /  16.3 °C 59.9 °F /  15.5 °C 29.79 in /  1008.7 hPa East 1.2 mph /  1.9 km/h 1.2 mph /  1.9 km/h 95 % 0.05 in /  1.27 mm
16:14 61.3 °F /  16.3 °C 59.9 °F /  15.5 °C 29.79 in /  1008.7 hPa East 1.2 mph /  1.9 km/h 1.2 mph /  1.9 km/h 95 % 0.05 in /  1.27 mm
16:15 61.3 °F /  16.3 °C 59.9 °F /  15.5 °C 29.79 in /  1008.7 hPa East 1.2 mph /  1.9 km/h 1.2 mph /  1.9 km/h 95 % 0.05 in /  1.27 mm
16:16 61.3 °F /  16.3 °C 59.9 °F /  15.5 °C 29.79 in /  1008.7 hPa East 1.2 mph /  1.9 km/h 1.2 mph /  1.9 km/h 95 % 0.05 in /  1.27 mm
16:18 61.3 °F /  16.3 °C 59.9 °F /  15.5 °C 29.79 in /  1008.7 hPa East 1.2 mph /  1.9 km/h 1.2 mph /  1.9 km/h 95 % 0.05 in /  1.27 mm
16:20 61.3 °F /  16.3 °C 59.9 °F /  15.5 °C 29.79 in /  1008.7 hPa East 1.2 mph /  1.9 km/h   95 % 0.05 in /  1.27 mm
16:21 61.2 °F /  16.2 °C 59.8 °F /  15.4 °C 29.79 in /  1008.7 hPa East 1.2 mph /  1.9 km/h 1.2 mph /  1.9 km/h 95 % 0.05 in /  1.27 mm
16:23 61.2 °F /  16.2 °C 59.8 °F /  15.4 °C 29.79 in /  1008.7 hPa Calm     95 % 0.05 in /  1.27 mm
16:24 61.2 °F /  16.2 °C 59.8 °F /  15.4 °C 29.79 in /  1008.7 hPa East 1.2 mph /  1.9 km/h   95 % 0.05 in /  1.27 mm
16:25 61.2 °F /  16.2 °C 59.8 °F /  15.4 °C 29.79 in /  1008.7 hPa East 1.2 mph /  1.9 km/h   95 % 0.05 in /  1.27 mm
16:30 61.1 °F /  16.2 °C 59.7 °F /  15.4 °C 29.79 in /  1008.7 hPa East 1.2 mph /  1.9 km/h 1.2 mph /  1.9 km/h 95 % 0.06 in /  1.52 mm
16:33 61.1 °F /  16.2 °C 59.7 °F /  15.4 °C 29.80 in /  1009 hPa East 1.2 mph /  1.9 km/h 1.2 mph /  1.9 km/h 95 % 0.06 in /  1.52 mm
16:36 61.0 °F /  16.1 °C 59.6 °F /  15.3 °C 29.79 in /  1008.7 hPa East 1.2 mph /  1.9 km/h 1.2 mph /  1.9 km/h 95 % 0.05 in /  1.27 mm
16:38 60.9 °F /  16.1 °C 59.5 °F /  15.3 °C 29.79 in /  1008.7 hPa East 1.2 mph /  1.9 km/h 1.2 mph /  1.9 km/h 95 % 0.05 in /  1.27 mm
16:43 60.8 °F /  16 °C 59.4 °F /  15.2 °C 29.79 in /  1008.7 hPa ESE 2.3 mph /  3.7 km/h 2.3 mph /  3.7 km/h 95 % 0.05 in /  1.27 mm
16:44 60.7 °F /  15.9 °C 59.3 °F /  15.2 °C 29.79 in /  1008.7 hPa ESE 1.2 mph /  1.9 km/h 1.2 mph /  1.9 km/h 95 % 0.04 in /  1.02 mm
16:49 60.6 °F /  15.9 °C 59.2 °F /  15.1 °C 29.79 in /  1008.7 hPa ESE 1.2 mph /  1.9 km/h   95 % 0.04 in /  1.02 mm
16:50 60.7 °F /  15.9 °C 59.3 °F /  15.2 °C 29.79 in /  1008.7 hPa SE 1.2 mph /  1.9 km/h 1.2 mph /  1.9 km/h 95 % 0.05 in /  1.27 mm
16:53 60.6 °F /  15.9 °C 58.9 °F /  14.9 °C 29.79 in /  1008.7 hPa ESE 1.2 mph /  1.9 km/h 1.2 mph /  1.9 km/h 94 % 0.04 in /  1.02 mm
16:55 60.6 °F /  15.9 °C 58.9 °F /  14.9 °C 29.79 in /  1008.7 hPa SE 1.2 mph /  1.9 km/h 1.2 mph /  1.9 km/h 94 % 0.04 in /  1.02 mm
16:57 60.5 °F /  15.8 °C 58.8 °F /  14.9 °C 29.79 in /  1008.7 hPa SE 1.2 mph /  1.9 km/h   94 % 0.04 in /  1.02 mm
16:58 60.5 °F /  15.8 °C 58.8 °F /  14.9 °C 29.79 in /  1008.7 hPa SE 1.2 mph /  1.9 km/h 1.2 mph /  1.9 km/h 94 % 0.04 in /  1.02 mm
16:59 60.5 °F /  15.8 °C 58.8 °F /  14.9 °C 29.78 in /  1008.4 hPa ESE 2.3 mph /  3.7 km/h   94 % 0.04 in /  1.02 mm
17:01 60.5 °F /  15.8 °C 58.8 °F /  14.9 °C 29.78 in /  1008.4 hPa SE 1.0 mph /  1.6 km/h   94 % 0.04 in /  1.02 mm
17:03 60.5 °F /  15.8 °C 58.8 °F /  14.9 °C 29.78 in /  1008.4 hPa Calm     94 % 0.03 in /  0.76 mm
17:04 60.5 °F /  15.8 °C 58.8 °F /  14.9 °C 29.78 in /  1008.4 hPa Calm     94 % 0.03 in /  0.76 mm
17:05 60.5 °F /  15.8 °C 58.8 °F /  14.9 °C 29.78 in /  1008.4 hPa Calm     94 % 0.03 in /  0.76 mm
17:06 60.5 °F /  15.8 °C 58.8 °F /  14.9 °C 29.78 in /  1008.4 hPa Calm     94 % 0.03 in /  0.76 mm
17:07 60.5 °F /  15.8 °C 58.8 °F /  14.9 °C 29.78 in /  1008.4 hPa Calm     94 % 0.03 in /  0.76 mm
17:09 60.4 °F /  15.8 °C 58.7 °F /  14.8 °C 29.78 in /  1008.4 hPa Calm     94 % 0.03 in /  0.76 mm
17:10 60.4 °F /  15.8 °C 58.7 °F /  14.8 °C 29.78 in /  1008.4 hPa Calm     94 % 0.03 in /  0.76 mm
17:11 60.4 °F /  15.8 °C 58.7 °F /  14.8 °C 29.78 in /  1008.4 hPa Calm     94 % 0.03 in /  0.76 mm
17:12 60.4 °F /  15.8 °C 58.7 °F /  14.8 °C 29.78 in /  1008.4 hPa East 1.2 mph /  1.9 km/h 1.2 mph /  1.9 km/h 94 % 0.03 in /  0.76 mm
17:14 60.3 °F /  15.7 °C 58.6 °F /  14.8 °C 29.78 in /  1008.4 hPa East 1.2 mph /  1.9 km/h 1.2 mph /  1.9 km/h 94 % 0.02 in /  0.51 mm
17:15 60.4 °F /  15.8 °C 58.7 °F /  14.8 °C 29.78 in /  1008.4 hPa SE 1.2 mph /  1.9 km/h 1.2 mph /  1.9 km/h 94 % 0.02 in /  0.51 mm
17:17 60.3 °F /  15.7 °C 58.6 °F /  14.8 °C 29.78 in /  1008.4 hPa East 1.2 mph /  1.9 km/h   94 % 0.02 in /  0.51 mm
17:18 60.3 °F /  15.7 °C 58.6 °F /  14.8 °C 29.78 in /  1008.4 hPa East 1.2 mph /  1.9 km/h   94 % 0.02 in /  0.51 mm
17:19 60.3 °F /  15.7 °C 58.6 °F /  14.8 °C 29.77 in /  1008 hPa Calm     94 % 0.02 in /  0.51 mm
17:20 60.3 °F /  15.7 °C 58.6 °F /  14.8 °C 29.77 in /  1008 hPa Calm     94 % 0.02 in /  0.51 mm
17:23 60.3 °F /  15.7 °C 58.6 °F /  14.8 °C 29.77 in /  1008 hPa SE 1.2 mph /  1.9 km/h 1.2 mph /  1.9 km/h 94 % 0.03 in /  0.76 mm
17:24 60.2 °F /  15.7 °C 58.5 °F /  14.7 °C 29.77 in /  1008 hPa SE 1.2 mph /  1.9 km/h 1.2 mph /  1.9 km/h 94 % 0.03 in /  0.76 mm
17:26 60.2 °F /  15.7 °C 58.5 °F /  14.7 °C 29.77 in /  1008 hPa Calm     94 % 0.03 in /  0.76 mm
17:27 60.1 °F /  15.6 °C 58.4 °F /  14.7 °C 29.77 in /  1008 hPa ENE 1.2 mph /  1.9 km/h 1.2 mph /  1.9 km/h 94 % 0.03 in /  0.76 mm
17:30 60.1 °F /  15.6 °C 58.4 °F /  14.7 °C 29.77 in /  1008 hPa ENE 1.2 mph /  1.9 km/h 1.2 mph /  1.9 km/h 94 % 0.02 in /  0.51 mm
17:31 60.2 °F /  15.7 °C 58.5 °F /  14.7 °C 29.77 in /  1008 hPa ESE 2.3 mph /  3.7 km/h 2.3 mph /  3.7 km/h 94 % 0.02 in /  0.51 mm
17:32 60.2 °F /  15.7 °C 58.5 °F /  14.7 °C 29.77 in /  1008 hPa ESE 2.3 mph /  3.7 km/h 2.3 mph /  3.7 km/h 94 % 0.02 in /  0.51 mm
17:34 60.3 °F /  15.7 °C 58.6 °F /  14.8 °C 29.77 in /  1008 hPa East 2.3 mph /  3.7 km/h 2.3 mph /  3.7 km/h 94 % 0.02 in /  0.51 mm
17:37 60.5 °F /  15.8 °C 58.5 °F /  14.7 °C 29.76 in /  1007.7 hPa SE 2.0 mph /  3.2 km/h 2.0 mph /  3.2 km/h 93 % 0.02 in /  0.51 mm
17:43 60.6 °F /  15.9 °C 58.3 °F /  14.6 °C 29.76 in /  1007.7 hPa SE 1.2 mph /  1.9 km/h 1.2 mph /  1.9 km/h 92 % 0.02 in /  0.51 mm
17:45 60.6 °F /  15.9 °C 58.3 °F /  14.6 °C 29.77 in /  1008 hPa East 2.3 mph /  3.7 km/h 2.3 mph /  3.7 km/h 92 % 0.02 in /  0.51 mm
17:48 60.7 °F /  15.9 °C 58.4 °F /  14.7 °C 29.76 in /  1007.7 hPa ESE 2.3 mph /  3.7 km/h 2.3 mph /  3.7 km/h 92 % 0.02 in /  0.51 mm
17:52 60.7 °F /  15.9 °C 58.4 °F /  14.7 °C 29.76 in /  1007.7 hPa ESE 2.3 mph /  3.7 km/h 2.3 mph /  3.7 km/h 92 % 0.01 in /  0.25 mm
17:54 60.8 °F /  16 °C 58.2 °F /  14.6 °C 29.76 in /  1007.7 hPa East 2.0 mph /  3.2 km/h 2.0 mph /  3.2 km/h 91 % 0.01 in /  0.25 mm
17:56 60.9 °F /  16.1 °C 58.3 °F /  14.6 °C 29.76 in /  1007.7 hPa East 2.0 mph /  3.2 km/h 2.0 mph /  3.2 km/h 91 % 0.01 in /  0.25 mm
17:58 60.9 °F /  16.1 °C 58.3 °F /  14.6 °C 29.76 in /  1007.7 hPa ESE 1.2 mph /  1.9 km/h 1.2 mph /  1.9 km/h 91 % 0.01 in /  0.25 mm
18:01 61.0 °F /  16.1 °C 58.4 °F /  14.7 °C 29.76 in /  1007.7 hPa East 2.3 mph /  3.7 km/h 2.3 mph /  3.7 km/h 91 % 0.02 in /  0.51 mm
18:07 60.9 °F /  16.1 °C 58.3 °F /  14.6 °C 29.76 in /  1007.7 hPa Calm     91 % 0.02 in /  0.51 mm
18:09 60.8 °F /  16 °C 58.2 °F /  14.6 °C 29.76 in /  1007.7 hPa Calm     91 % 0.02 in /  0.51 mm
18:12 60.7 °F /  15.9 °C 58.4 °F /  14.7 °C 29.76 in /  1007.7 hPa Calm     92 % 0.02 in /  0.51 mm
18:20 60.4 °F /  15.8 °C 58.1 °F /  14.5 °C 29.76 in /  1007.7 hPa Calm     92 % 0.03 in /  0.76 mm
18:22 60.3 °F /  15.7 °C 58.0 °F /  14.4 °C 29.76 in /  1007.7 hPa Calm     92 % 0.02 in /  0.51 mm
18:23 60.3 °F /  15.7 °C 58.0 °F /  14.4 °C 29.76 in /  1007.7 hPa Calm     92 % 0.02 in /  0.51 mm
18:24 60.2 °F /  15.7 °C 57.9 °F /  14.4 °C 29.76 in /  1007.7 hPa Calm     92 % 0.02 in /  0.51 mm
18:25 60.1 °F /  15.6 °C 57.8 °F /  14.3 °C 29.75 in /  1007.3 hPa Calm     92 % 0.02 in /  0.51 mm
18:26 60.1 °F /  15.6 °C 57.8 °F /  14.3 °C 29.75 in /  1007.3 hPa Calm     92 % 0.02 in /  0.51 mm
18:27 60.1 °F /  15.6 °C 58.1 °F /  14.5 °C 29.75 in /  1007.3 hPa Calm     93 % 0.02 in /  0.51 mm
18:28 60.0 °F /  15.6 °C 58.0 °F /  14.4 °C 29.75 in /  1007.3 hPa Calm     93 % 0.02 in /  0.51 mm
18:29 60.0 °F /  15.6 °C 58.0 °F /  14.4 °C 29.76 in /  1007.7 hPa Calm     93 % 0.02 in /  0.51 mm
18:30 59.9 °F /  15.5 °C 57.9 °F /  14.4 °C 29.75 in /  1007.3 hPa Calm     93 % 0.02 in /  0.51 mm
18:31 59.9 °F /  15.5 °C 57.9 °F /  14.4 °C 29.75 in /  1007.3 hPa Calm     93 % 0.02 in /  0.51 mm
18:32 59.9 °F /  15.5 °C 57.9 °F /  14.4 °C 29.75 in /  1007.3 hPa Calm     93 % 0.02 in /  0.51 mm
18:33 59.9 °F /  15.5 °C 57.9 °F /  14.4 °C 29.75 in /  1007.3 hPa Calm     93 % 0.02 in /  0.51 mm
18:34 59.8 °F /  15.4 °C 57.8 °F /  14.3 °C 29.75 in /  1007.3 hPa Calm     93 % 0.02 in /  0.51 mm
18:35 59.8 °F /  15.4 °C 57.8 °F /  14.3 °C 29.75 in /  1007.3 hPa Calm     93 % 0.02 in /  0.51 mm
18:37 59.8 °F /  15.4 °C 57.8 °F /  14.3 °C 29.75 in /  1007.3 hPa Calm     93 % 0.02 in /  0.51 mm
18:38 59.8 °F /  15.4 °C 57.8 °F /  14.3 °C 29.75 in /  1007.3 hPa Calm     93 % 0.02 in /  0.51 mm
18:39 59.8 °F /  15.4 °C 57.8 °F /  14.3 °C 29.75 in /  1007.3 hPa Calm     93 % 0.02 in /  0.51 mm
18:40 59.8 °F /  15.4 °C 57.8 °F /  14.3 °C 29.75 in /  1007.3 hPa Calm     93 % 0.02 in /  0.51 mm
18:41 59.7 °F /  15.4 °C 57.7 °F /  14.3 °C 29.75 in /  1007.3 hPa Calm     93 % 0.02 in /  0.51 mm
18:42 59.7 °F /  15.4 °C 57.7 °F /  14.3 °C 29.75 in /  1007.3 hPa Calm     93 % 0.02 in /  0.51 mm
18:43 59.7 °F /  15.4 °C 57.7 °F /  14.3 °C 29.75 in /  1007.3 hPa Calm     93 % 0.02 in /  0.51 mm
18:44 59.7 °F /  15.4 °C 58.0 °F /  14.4 °C 29.75 in /  1007.3 hPa Calm     94 % 0.02 in /  0.51 mm
18:45 59.7 °F /  15.4 °C 58.0 °F /  14.4 °C 29.75 in /  1007.3 hPa Calm     94 % 0.02 in /  0.51 mm
18:46 59.7 °F /  15.4 °C 58.0 °F /  14.4 °C 29.75 in /  1007.3 hPa Calm     94 % 0.02 in /  0.51 mm
18:50 59.6 °F /  15.3 °C 57.9 °F /  14.4 °C 29.75 in /  1007.3 hPa Calm     94 % 0.02 in /  0.51 mm
18:53 59.5 °F /  15.3 °C 57.8 °F /  14.3 °C 29.74 in /  1007 hPa Calm     94 % 0.02 in /  0.51 mm
18:55 59.5 °F /  15.3 °C 57.8 °F /  14.3 °C 29.74 in /  1007 hPa Calm     94 % 0.02 in /  0.51 mm
18:58 59.5 °F /  15.3 °C 57.8 °F /  14.3 °C 29.74 in /  1007 hPa Calm     94 % 0.02 in /  0.51 mm
18:59 59.5 °F /  15.3 °C 57.8 °F /  14.3 °C 29.74 in /  1007 hPa Calm     94 % 0.02 in /  0.51 mm
19:00 59.5 °F /  15.3 °C 57.8 °F /  14.3 °C 29.74 in /  1007 hPa Calm     94 % 0.01 in /  0.25 mm
19:01 59.5 °F /  15.3 °C 57.8 °F /  14.3 °C 29.74 in /  1007 hPa Calm     94 % 0.01 in /  0.25 mm
19:02 59.5 °F /  15.3 °C 57.8 °F /  14.3 °C 29.74 in /  1007 hPa Calm     94 % 0.01 in /  0.25 mm
19:03 59.5 °F /  15.3 °C 57.8 °F /  14.3 °C 29.74 in /  1007 hPa Calm     94 % 0.01 in /  0.25 mm
19:05 59.4 °F /  15.2 °C 57.7 °F /  14.3 °C 29.74 in /  1007 hPa Calm     94 % 0.01 in /  0.25 mm
19:06 59.4 °F /  15.2 °C 57.7 °F /  14.3 °C 29.74 in /  1007 hPa Calm     94 % 0.01 in /  0.25 mm
19:07 59.4 °F /  15.2 °C 57.7 °F /  14.3 °C 29.74 in /  1007 hPa Calm     94 % 0.01 in /  0.25 mm
19:10 59.4 °F /  15.2 °C 57.7 °F /  14.3 °C 29.74 in /  1007 hPa Calm     94 % 0.01 in /  0.25 mm
19:11 59.4 °F /  15.2 °C 58.0 °F /  14.4 °C 29.74 in /  1007 hPa Calm     95 % 0.01 in /  0.25 mm
19:12 59.4 °F /  15.2 °C 58.0 °F /  14.4 °C 29.74 in /  1007 hPa Calm     95 % 0.01 in /  0.25 mm
19:13 59.4 °F /  15.2 °C 58.0 °F /  14.4 °C 29.74 in /  1007 hPa Calm     95 % 0.01 in /  0.25 mm
19:16 59.3 °F /  15.2 °C 57.9 °F /  14.4 °C 29.74 in /  1007 hPa ESE 1.2 mph /  1.9 km/h   95 % 0.01 in /  0.25 mm
19:17 59.3 °F /  15.2 °C 57.9 °F /  14.4 °C 29.74 in /  1007 hPa Calm     95 % 0.00 in /  0 mm
19:18 59.3 °F /  15.2 °C 57.9 °F /  14.4 °C 29.74 in /  1007 hPa Calm     95 % 0.00 in /  0 mm
19:19 59.3 °F /  15.2 °C 57.9 °F /  14.4 °C 29.74 in /  1007 hPa Calm     95 % 0.00 in /  0 mm
19:24 59.2 °F /  15.1 °C 57.8 °F /  14.3 °C 29.74 in /  1007 hPa Calm     95 % 0.00 in /  0 mm
19:25 59.2 °F /  15.1 °C 57.8 °F /  14.3 °C 29.74 in /  1007 hPa Calm     95 % 0.00 in /  0 mm
19:26 59.3 °F /  15.2 °C 57.9 °F /  14.4 °C 29.74 in /  1007 hPa ESE 1.2 mph /  1.9 km/h   95 % 0.00 in /  0 mm
19:27 59.3 °F /  15.2 °C 57.9 °F /  14.4 °C 29.74 in /  1007 hPa Calm     95 % 0.00 in /  0 mm
19:28 59.3 °F /  15.2 °C 57.9 °F /  14.4 °C 29.74 in /  1007 hPa Calm     95 % 0.00 in /  0 mm
19:33 59.2 °F /  15.1 °C 57.8 °F /  14.3 °C 29.74 in /  1007 hPa Calm     95 % 0.00 in /  0 mm
19:34 59.2 °F /  15.1 °C 57.8 °F /  14.3 °C 29.74 in /  1007 hPa Calm     95 % 0.00 in /  0 mm
19:36 59.1 °F /  15.1 °C 57.7 °F /  14.3 °C 29.74 in /  1007 hPa Calm     95 % 0.00 in /  0 mm
19:38 59.1 °F /  15.1 °C 57.7 °F /  14.3 °C 29.74 in /  1007 hPa Calm     95 % 0.00 in /  0 mm
19:39 59.1 °F /  15.1 °C 57.7 °F /  14.3 °C 29.74 in /  1007 hPa Calm     95 % 0.00 in /  0 mm
19:41 59.1 °F /  15.1 °C 57.7 °F /  14.3 °C 29.74 in /  1007 hPa Calm     95 % 0.00 in /  0 mm
19:42 59.1 °F /  15.1 °C 57.7 °F /  14.3 °C 29.74 in /  1007 hPa Calm     95 % 0.00 in /  0 mm
19:46 59.0 °F /  15 °C 57.6 °F /  14.2 °C 29.74 in /  1007 hPa Calm     95 % 0.00 in /  0 mm
19:48 59.0 °F /  15 °C 57.6 °F /  14.2 °C 29.74 in /  1007 hPa Calm     95 % 0.00 in /  0 mm
19:49 58.9 °F /  14.9 °C 57.5 °F /  14.2 °C 29.74 in /  1007 hPa Calm     95 % 0.00 in /  0 mm
19:51 58.8 °F /  14.9 °C 57.4 °F /  14.1 °C 29.74 in /  1007 hPa Calm     95 % 0.00 in /  0 mm
19:52 58.8 °F /  14.9 °C 57.4 °F /  14.1 °C 29.74 in /  1007 hPa Calm     95 % 0.00 in /  0 mm
19:55 58.7 °F /  14.8 °C 57.3 °F /  14.1 °C 29.74 in /  1007 hPa Calm     95 % 0.00 in /  0 mm
19:59 58.8 °F /  14.9 °C 57.4 °F /  14.1 °C 29.74 in /  1007 hPa ESE 1.2 mph /  1.9 km/h 1.2 mph /  1.9 km/h 95 % 0.00 in /  0 mm
20:00 58.8 °F /  14.9 °C 57.4 °F /  14.1 °C 29.74 in /  1007 hPa Calm   0.1 mph /  0.2 km/h 95 % 0.00 in /  0 mm
20:01 58.8 °F /  14.9 °C 57.4 °F /  14.1 °C 29.74 in /  1007 hPa East 2.3 mph /  3.7 km/h 2.3 mph /  3.7 km/h 95 % 0.00 in /  0 mm
20:02 58.9 °F /  14.9 °C 57.5 °F /  14.2 °C 29.74 in /  1007 hPa East 2.3 mph /  3.7 km/h 2.3 mph /  3.7 km/h 95 % 0.00 in /  0 mm
20:03 59.0 °F /  15 °C 57.6 °F /  14.2 °C 29.74 in /  1007 hPa East 1.2 mph /  1.9 km/h   95 % 0.00 in /  0 mm
20:04 59.0 °F /  15 °C 57.6 °F /  14.2 °C 29.74 in /  1007 hPa Calm     95 % 0.00 in /  0 mm
20:05 59.0 °F /  15 °C 57.3 °F /  14.1 °C 29.74 in /  1007 hPa Calm     94 % 0.00 in /  0 mm
20:06 59.0 °F /  15 °C 57.3 °F /  14.1 °C 29.74 in /  1007 hPa Calm     94 % 0.00 in /  0 mm
20:09 59.0 °F /  15 °C 57.3 °F /  14.1 °C 29.73 in /  1006.7 hPa Calm     94 % 0.00 in /  0 mm
20:11 59.0 °F /  15 °C 57.3 °F /  14.1 °C 29.73 in /  1006.7 hPa Calm     94 % 0.00 in /  0 mm
20:12 59.0 °F /  15 °C 57.3 °F /  14.1 °C 29.73 in /  1006.7 hPa Calm     94 % 0.00 in /  0 mm
20:13 59.0 °F /  15 °C 57.3 °F /  14.1 °C 29.73 in /  1006.7 hPa Calm     94 % 0.00 in /  0 mm
20:14 59.0 °F /  15 °C 57.3 °F /  14.1 °C 29.73 in /  1006.7 hPa Calm     94 % 0.00 in /  0 mm
20:15 59.0 °F /  15 °C 57.3 °F /  14.1 °C 29.73 in /  1006.7 hPa Calm     94 % 0.00 in /  0 mm
20:17 59.0 °F /  15 °C 57.3 °F /  14.1 °C 29.73 in /  1006.7 hPa Calm     94 % 0.00 in /  0 mm
20:18 59.0 °F /  15 °C 57.3 °F /  14.1 °C 29.73 in /  1006.7 hPa Calm     94 % 0.00 in /  0 mm
20:19 59.0 °F /  15 °C 57.3 °F /  14.1 °C 29.73 in /  1006.7 hPa Calm     94 % 0.00 in /  0 mm
20:20 59.0 °F /  15 °C 57.3 °F /  14.1 °C 29.73 in /  1006.7 hPa Calm     94 % 0.00 in /  0 mm
20:21 59.0 °F /  15 °C 57.3 °F /  14.1 °C 29.73 in /  1006.7 hPa Calm     94 % 0.00 in /  0 mm
20:22 59.0 °F /  15 °C 57.3 °F /  14.1 °C 29.73 in /  1006.7 hPa Calm     94 % 0.00 in /  0 mm
20:23 59.0 °F /  15 °C 57.3 °F /  14.1 °C 29.73 in /  1006.7 hPa Calm     94 % 0.00 in /  0 mm
20:27 59.0 °F /  15 °C 57.3 °F /  14.1 °C 29.73 in /  1006.7 hPa Calm     94 % 0.00 in /  0 mm
20:28 59.0 °F /  15 °C 57.3 °F /  14.1 °C 29.73 in /  1006.7 hPa East 1.0 mph /  1.6 km/h   94 % 0.00 in /  0 mm
20:29 59.0 °F /  15 °C 57.3 °F /  14.1 °C 29.72 in /  1006.3 hPa Calm     94 % 0.00 in /  0 mm
20:30 59.0 °F /  15 °C 57.3 °F /  14.1 °C 29.72 in /  1006.3 hPa Calm     94 % 0.00 in /  0 mm
20:31 59.0 °F /  15 °C 57.3 °F /  14.1 °C 29.72 in /  1006.3 hPa Calm     94 % 0.00 in /  0 mm
20:36 59.0 °F /  15 °C 57.3 °F /  14.1 °C 29.72 in /  1006.3 hPa Calm     94 % 0.00 in /  0 mm
20:37 59.0 °F /  15 °C 57.3 °F /  14.1 °C 29.72 in /  1006.3 hPa Calm     94 % 0.00 in /  0 mm
20:38 59.0 °F /  15 °C 57.3 °F /  14.1 °C 29.72 in /  1006.3 hPa Calm     94 % 0.00 in /  0 mm
20:41 58.8 °F /  14.9 °C 57.1 °F /  13.9 °C 29.72 in /  1006.3 hPa Calm     94 % 0.00 in /  0 mm
20:43 58.8 °F /  14.9 °C 57.1 °F /  13.9 °C 29.71 in /  1006 hPa Calm     94 % 0.00 in /  0 mm
20:45 58.8 °F /  14.9 °C 57.1 °F /  13.9 °C 29.71 in /  1006 hPa Calm     94 % 0.00 in /  0 mm
20:46 58.7 °F /  14.8 °C 57.0 °F /  13.9 °C 29.71 in /  1006 hPa Calm     94 % 0.00 in /  0 mm
20:47 58.7 °F /  14.8 °C 57.0 °F /  13.9 °C 29.71 in /  1006 hPa Calm     94 % 0.00 in /  0 mm
20:48 58.7 °F /  14.8 °C 57.0 °F /  13.9 °C 29.71 in /  1006 hPa Calm     94 % 0.00 in /  0 mm
20:49 58.6 °F /  14.8 °C 56.9 °F /  13.8 °C 29.71 in /  1006 hPa Calm     94 % 0.00 in /  0 mm
20:50 58.6 °F /  14.8 °C 56.9 °F /  13.8 °C 29.71 in /  1006 hPa Calm     94 % 0.00 in /  0 mm
20:51 58.6 °F /  14.8 °C 56.9 °F /  13.8 °C 29.71 in /  1006 hPa Calm     94 % 0.00 in /  0 mm
20:52 58.7 °F /  14.8 °C 57.0 °F /  13.9 °C 29.71 in /  1006 hPa Calm     94 % 0.00 in /  0 mm
20:54 58.7 °F /  14.8 °C 57.0 °F /  13.9 °C 29.71 in /  1006 hPa Calm     94 % 0.00 in /  0 mm
20:56 58.7 °F /  14.8 °C 57.0 °F /  13.9 °C 29.71 in /  1006 hPa Calm     94 % 0.00 in /  0 mm
20:57 58.7 °F /  14.8 °C 57.0 °F /  13.9 °C 29.71 in /  1006 hPa Calm     94 % 0.00 in /  0 mm
20:58 58.7 °F /  14.8 °C 57.0 °F /  13.9 °C 29.71 in /  1006 hPa Calm     94 % 0.00 in /  0 mm
20:59 58.7 °F /  14.8 °C 57.0 °F /  13.9 °C 29.71 in /  1006 hPa Calm     94 % 0.00 in /  0 mm
21:00 58.7 °F /  14.8 °C 57.0 °F /  13.9 °C 29.71 in /  1006 hPa Calm     94 % 0.00 in /  0 mm
21:01 58.8 °F /  14.9 °C 57.1 °F /  13.9 °C 29.71 in /  1006 hPa Calm     94 % 0.00 in /  0 mm
21:03 58.7 °F /  14.8 °C 57.0 °F /  13.9 °C 29.71 in /  1006 hPa Calm     94 % 0.00 in /  0 mm
21:05 58.7 °F /  14.8 °C 57.0 °F /  13.9 °C 29.71 in /  1006 hPa NNE 1.2 mph /  1.9 km/h 1.2 mph /  1.9 km/h 94 % 0.00 in /  0 mm
21:06 58.8 °F /  14.9 °C 57.1 °F /  13.9 °C 29.71 in /  1006 hPa NNE 1.2 mph /  1.9 km/h   94 % 0.00 in /  0 mm
21:07 58.8 °F /  14.9 °C 57.1 °F /  13.9 °C 29.71 in /  1006 hPa Calm     94 % 0.00 in /  0 mm
21:08 58.8 °F /  14.9 °C 57.1 °F /  13.9 °C 29.71 in /  1006 hPa NNE 1.2 mph /  1.9 km/h   94 % 0.00 in /  0 mm
21:11 58.8 °F /  14.9 °C 57.1 °F /  13.9 °C 29.71 in /  1006 hPa Calm     94 % 0.00 in /  0 mm
21:12 58.8 °F /  14.9 °C 57.1 °F /  13.9 °C 29.71 in /  1006 hPa Calm     94 % 0.00 in /  0 mm
21:15 58.8 °F /  14.9 °C 56.8 °F /  13.8 °C 29.71 in /  1006 hPa Calm     93 % 0.00 in /  0 mm
21:16 58.8 °F /  14.9 °C 56.8 °F /  13.8 °C 29.71 in /  1006 hPa Calm     93 % 0.00 in /  0 mm
21:17 58.8 °F /  14.9 °C 56.8 °F /  13.8 °C 29.71 in /  1006 hPa Calm     93 % 0.00 in /  0 mm
21:18 58.8 °F /  14.9 °C 56.8 °F /  13.8 °C 29.71 in /  1006 hPa Calm     93 % 0.00 in /  0 mm
21:21 58.8 °F /  14.9 °C 56.8 °F /  13.8 °C 29.71 in /  1006 hPa NNW 1.2 mph /  1.9 km/h 1.2 mph /  1.9 km/h 93 % 0.00 in /  0 mm
21:23 58.8 °F /  14.9 °C 56.8 °F /  13.8 °C 29.70 in /  1005.6 hPa NNW 1.2 mph /  1.9 km/h 1.2 mph /  1.9 km/h 93 % 0.00 in /  0 mm
21:24 58.8 °F /  14.9 °C 56.8 °F /  13.8 °C 29.70 in /  1005.6 hPa NNW 1.2 mph /  1.9 km/h   93 % 0.00 in /  0 mm
21:26 58.9 °F /  14.9 °C 56.9 °F /  13.8 °C 29.70 in /  1005.6 hPa WNW 1.0 mph /  1.6 km/h   93 % 0.00 in /  0 mm
21:28 58.9 °F /  14.9 °C 56.6 °F /  13.7 °C 29.70 in /  1005.6 hPa Calm     92 % 0.00 in /  0 mm
21:30 59.0 °F /  15 °C 56.7 °F /  13.7 °C 29.70 in /  1005.6 hPa Calm     92 % 0.00 in /  0 mm
21:31 59.0 °F /  15 °C 56.7 °F /  13.7 °C 29.70 in /  1005.6 hPa Calm     92 % 0.00 in /  0 mm
21:33 59.1 °F /  15.1 °C 56.8 °F /  13.8 °C 29.70 in /  1005.6 hPa NW 1.2 mph /  1.9 km/h 1.2 mph /  1.9 km/h 92 % 0.00 in /  0 mm
21:34 59.2 °F /  15.1 °C 56.9 °F /  13.8 °C 29.70 in /  1005.6 hPa NW 1.0 mph /  1.6 km/h 1.0 mph /  1.6 km/h 92 % 0.00 in /  0 mm
21:36 59.3 °F /  15.2 °C 56.7 °F /  13.7 °C 29.70 in /  1005.6 hPa NW 1.2 mph /  1.9 km/h   91 % 0.00 in /  0 mm
21:38 59.4 °F /  15.2 °C 56.8 °F /  13.8 °C 29.70 in /  1005.6 hPa Calm     91 % 0.00 in /  0 mm
21:39 59.4 °F /  15.2 °C 56.8 °F /  13.8 °C 29.70 in /  1005.6 hPa Calm     91 % 0.00 in /  0 mm
21:41 59.4 °F /  15.2 °C 56.8 °F /  13.8 °C 29.70 in /  1005.6 hPa Calm     91 % 0.00 in /  0 mm
21:42 59.4 °F /  15.2 °C 56.8 °F /  13.8 °C 29.70 in /  1005.6 hPa Calm     91 % 0.00 in /  0 mm
21:44 59.4 °F /  15.2 °C 56.8 °F /  13.8 °C 29.69 in /  1005.3 hPa NW 1.2 mph /  1.9 km/h   91 % 0.00 in /  0 mm
21:45 59.4 °F /  15.2 °C 56.8 °F /  13.8 °C 29.69 in /  1005.3 hPa Calm     91 % 0.00 in /  0 mm
21:46 59.4 °F /  15.2 °C 56.8 °F /  13.8 °C 29.69 in /  1005.3 hPa Calm     91 % 0.00 in /  0 mm
21:50 59.4 °F /  15.2 °C 56.8 °F /  13.8 °C 29.69 in /  1005.3 hPa Calm     91 % 0.00 in /  0 mm
21:55 59.5 °F /  15.3 °C 56.6 °F /  13.7 °C 29.69 in /  1005.3 hPa Calm     90 % 0.00 in /  0 mm
21:58 59.5 °F /  15.3 °C 56.6 °F /  13.7 °C 29.69 in /  1005.3 hPa Calm     90 % 0.00 in /  0 mm
21:59 59.5 °F /  15.3 °C 56.6 °F /  13.7 °C 29.69 in /  1005.3 hPa Calm     90 % 0.00 in /  0 mm
22:00 59.5 °F /  15.3 °C 56.6 °F /  13.7 °C 29.69 in /  1005.3 hPa Calm     90 % 0.00 in /  0 mm
22:02 59.5 °F /  15.3 °C 56.6 °F /  13.7 °C 29.68 in /  1005 hPa Calm     90 % 0.00 in /  0 mm
22:03 59.4 °F /  15.2 °C 56.5 °F /  13.6 °C 29.69 in /  1005.3 hPa Calm     90 % 0.00 in /  0 mm
22:04 59.4 °F /  15.2 °C 56.5 °F /  13.6 °C 29.68 in /  1005 hPa Calm     90 % 0.00 in /  0 mm
22:05 59.4 °F /  15.2 °C 56.5 °F /  13.6 °C 29.68 in /  1005 hPa Calm     90 % 0.00 in /  0 mm
22:06 59.3 °F /  15.2 °C 56.4 °F /  13.6 °C 29.68 in /  1005 hPa Calm     90 % 0.00 in /  0 mm
22:08 59.3 °F /  15.2 °C 56.4 °F /  13.6 °C 29.68 in /  1005 hPa Calm     90 % 0.00 in /  0 mm
22:12 59.2 °F /  15.1 °C 56.6 °F /  13.7 °C 29.68 in /  1005 hPa Calm     91 % 0.00 in /  0 mm
22:13 59.2 °F /  15.1 °C 56.6 °F /  13.7 °C 29.68 in /  1005 hPa Calm     91 % 0.00 in /  0 mm
22:15 59.1 °F /  15.1 °C 56.5 °F /  13.6 °C 29.68 in /  1005 hPa Calm     91 % 0.00 in /  0 mm
22:16 59.0 °F /  15 °C 56.4 °F /  13.6 °C 29.68 in /  1005 hPa Calm     91 % 0.00 in /  0 mm
22:18 59.0 °F /  15 °C 56.4 °F /  13.6 °C 29.68 in /  1005 hPa Calm     91 % 0.00 in /  0 mm
22:20 59.0 °F /  15 °C 56.4 °F /  13.6 °C 29.68 in /  1005 hPa Calm     91 % 0.00 in /  0 mm
22:21 58.9 °F /  14.9 °C 56.3 °F /  13.5 °C 29.68 in /  1005 hPa Calm     91 % 0.00 in /  0 mm
22:22 58.9 °F /  14.9 °C 56.3 °F /  13.5 °C 29.68 in /  1005 hPa Calm     91 % 0.00 in /  0 mm
22:23 58.9 °F /  14.9 °C 56.3 °F /  13.5 °C 29.68 in /  1005 hPa Calm     91 % 0.00 in /  0 mm
22:25 58.9 °F /  14.9 °C 56.6 °F /  13.7 °C 29.68 in /  1005 hPa Calm     92 % 0.00 in /  0 mm
22:26 58.8 °F /  14.9 °C 56.5 °F /  13.6 °C 29.68 in /  1005 hPa Calm     92 % 0.00 in /  0 mm
22:27 58.9 °F /  14.9 °C 56.6 °F /  13.7 °C 29.68 in /  1005 hPa Calm     92 % 0.00 in /  0 mm
22:28 58.8 °F /  14.9 °C 56.5 °F /  13.6 °C 29.68 in /  1005 hPa Calm     92 % 0.00 in /  0 mm
22:29 58.8 °F /  14.9 °C 56.5 °F /  13.6 °C 29.68 in /  1005 hPa Calm     92 % 0.00 in /  0 mm
22:30 58.8 °F /  14.9 °C 56.5 °F /  13.6 °C 29.68 in /  1005 hPa Calm     92 % 0.00 in /  0 mm
22:32 58.8 °F /  14.9 °C 56.8 °F /  13.8 °C 29.68 in /  1005 hPa Calm     93 % 0.00 in /  0 mm
22:33 58.7 °F /  14.8 °C 56.7 °F /  13.7 °C 29.68 in /  1005 hPa Calm     93 % 0.00 in /  0 mm
22:34 58.6 °F /  14.8 °C 56.6 °F /  13.7 °C 29.68 in /  1005 hPa Calm     93 % 0.00 in /  0 mm
22:35 58.6 °F /  14.8 °C 56.6 °F /  13.7 °C 29.67 in /  1004.6 hPa Calm     93 % 0.00 in /  0 mm
22:37 58.4 °F /  14.7 °C 56.4 °F /  13.6 °C 29.67 in /  1004.6 hPa Calm     93 % 0.00 in /  0 mm
22:38 58.4 °F /  14.7 °C 56.4 °F /  13.6 °C 29.67 in /  1004.6 hPa Calm     93 % 0.00 in /  0 mm
22:39 58.3 °F /  14.6 °C 56.3 °F /  13.5 °C 29.68 in /  1005 hPa Calm     93 % 0.00 in /  0 mm
22:40 58.3 °F /  14.6 °C 56.3 °F /  13.5 °C 29.68 in /  1005 hPa Calm     93 % 0.00 in /  0 mm
22:43 58.2 °F /  14.6 °C 56.2 °F /  13.4 °C 29.67 in /  1004.6 hPa Calm     93 % 0.00 in /  0 mm
22:44 58.2 °F /  14.6 °C 56.2 °F /  13.4 °C 29.67 in /  1004.6 hPa Calm     93 % 0.00 in /  0 mm
22:45 58.1 °F /  14.5 °C 56.1 °F /  13.4 °C 29.67 in /  1004.6 hPa Calm     93 % 0.00 in /  0 mm
22:47 58.0 °F /  14.4 °C 56.0 °F /  13.3 °C 29.67 in /  1004.6 hPa Calm     93 % 0.00 in /  0 mm
22:49 58.0 °F /  14.4 °C 56.3 °F /  13.5 °C 29.67 in /  1004.6 hPa Calm     94 % 0.00 in /  0 mm
22:50 57.9 °F /  14.4 °C 56.2 °F /  13.4 °C 29.67 in /  1004.6 hPa Calm     94 % 0.00 in /  0 mm
22:51 57.9 °F /  14.4 °C 56.2 °F /  13.4 °C 29.67 in /  1004.6 hPa Calm     94 % 0.00 in /  0 mm
22:53 57.8 °F /  14.3 °C 56.1 °F /  13.4 °C 29.67 in /  1004.6 hPa Calm     94 % 0.00 in /  0 mm
22:54 57.8 °F /  14.3 °C 56.1 °F /  13.4 °C 29.67 in /  1004.6 hPa Calm     94 % 0.00 in /  0 mm
22:56 57.7 °F /  14.3 °C 56.0 °F /  13.3 °C 29.67 in /  1004.6 hPa Calm     94 % 0.00 in /  0 mm
22:57 57.7 °F /  14.3 °C 56.0 °F /  13.3 °C 29.67 in /  1004.6 hPa Calm     94 % 0.00 in /  0 mm
22:58 57.6 °F /  14.2 °C 55.9 °F /  13.3 °C 29.67 in /  1004.6 hPa Calm     94 % 0.00 in /  0 mm
22:59 57.6 °F /  14.2 °C 55.9 °F /  13.3 °C 29.67 in /  1004.6 hPa Calm     94 % 0.00 in /  0 mm
23:00 57.5 °F /  14.2 °C 55.8 °F /  13.2 °C 29.67 in /  1004.6 hPa Calm     94 % 0.00 in /  0 mm
23:02 57.4 °F /  14.1 °C 55.7 °F /  13.2 °C 29.67 in /  1004.6 hPa Calm     94 % 0.00 in /  0 mm
23:03 57.4 °F /  14.1 °C 55.7 °F /  13.2 °C 29.67 in /  1004.6 hPa Calm     94 % 0.00 in /  0 mm
23:04 57.4 °F /  14.1 °C 55.7 °F /  13.2 °C 29.67 in /  1004.6 hPa Calm     94 % 0.00 in /  0 mm
23:05 57.3 °F /  14.1 °C 55.6 °F /  13.1 °C 29.67 in /  1004.6 hPa Calm     94 % 0.00 in /  0 mm
23:07 57.2 °F /  14 °C 55.5 °F /  13.1 °C 29.66 in /  1004.3 hPa Calm     94 % 0.00 in /  0 mm
23:08 57.2 °F /  14 °C 55.5 °F /  13.1 °C 29.66 in /  1004.3 hPa Calm     94 % 0.00 in /  0 mm
23:09 57.1 °F /  13.9 °C 55.4 °F /  13 °C 29.66 in /  1004.3 hPa Calm     94 % 0.00 in /  0 mm
23:10 56.9 °F /  13.8 °C 55.2 °F /  12.9 °C 29.66 in /  1004.3 hPa Calm     94 % 0.00 in /  0 mm
23:11 56.9 °F /  13.8 °C 55.2 °F /  12.9 °C 29.66 in /  1004.3 hPa Calm     94 % 0.00 in /  0 mm
23:12 56.8 °F /  13.8 °C 55.1 °F /  12.8 °C 29.66 in /  1004.3 hPa Calm     94 % 0.00 in /  0 mm
23:13 56.8 °F /  13.8 °C 55.1 °F /  12.8 °C 29.66 in /  1004.3 hPa Calm     94 % 0.00 in /  0 mm
23:14 56.7 °F /  13.7 °C 55.0 °F /  12.8 °C 29.66 in /  1004.3 hPa Calm     94 % 0.00 in /  0 mm
23:16 56.7 °F /  13.7 °C 55.3 °F /  12.9 °C 29.66 in /  1004.3 hPa Calm     95 % 0.00 in /  0 mm
23:19 56.6 °F /  13.7 °C 55.2 °F /  12.9 °C 29.66 in /  1004.3 hPa Calm     95 % 0.00 in /  0 mm
23:20 56.6 °F /  13.7 °C 55.2 °F /  12.9 °C 29.66 in /  1004.3 hPa Calm     95 % 0.00 in /  0 mm
23:21 56.6 °F /  13.7 °C 55.2 °F /  12.9 °C 29.65 in /  1003.9 hPa Calm     95 % 0.00 in /  0 mm
23:24 56.6 °F /  13.7 °C 55.2 °F /  12.9 °C 29.65 in /  1003.9 hPa Calm     95 % 0.00 in /  0 mm
23:25 56.6 °F /  13.7 °C 55.2 °F /  12.9 °C 29.65 in /  1003.9 hPa Calm     95 % 0.00 in /  0 mm
23:26 56.6 °F /  13.7 °C 55.2 °F /  12.9 °C 29.65 in /  1003.9 hPa Calm     95 % 0.00 in /  0 mm
23:28 56.5 °F /  13.6 °C 55.1 °F /  12.8 °C 29.65 in /  1003.9 hPa Calm     95 % 0.00 in /  0 mm
23:29 56.5 °F /  13.6 °C 55.1 °F /  12.8 °C 29.65 in /  1003.9 hPa Calm     95 % 0.00 in /  0 mm
23:30 56.4 °F /  13.6 °C 55.0 °F /  12.8 °C 29.65 in /  1003.9 hPa Calm     95 % 0.00 in /  0 mm
23:31 56.4 °F /  13.6 °C 55.0 °F /  12.8 °C 29.65 in /  1003.9 hPa Calm     95 % 0.00 in /  0 mm
23:32 56.4 °F /  13.6 °C 55.0 °F /  12.8 °C 29.65 in /  1003.9 hPa Calm     95 % 0.00 in /  0 mm
23:35 56.2 °F /  13.4 °C 54.8 °F /  12.7 °C 29.65 in /  1003.9 hPa Calm     95 % 0.00 in /  0 mm
23:36 56.2 °F /  13.4 °C 54.8 °F /  12.7 °C 29.65 in /  1003.9 hPa Calm     95 % 0.00 in /  0 mm
23:37 56.2 °F /  13.4 °C 54.8 °F /  12.7 °C 29.65 in /  1003.9 hPa Calm     95 % 0.00 in /  0 mm
23:40 56.1 °F /  13.4 °C 54.7 °F /  12.6 °C 29.65 in /  1003.9 hPa Calm     95 % 0.00 in /  0 mm
23:41 56.1 °F /  13.4 °C 54.7 °F /  12.6 °C 29.65 in /  1003.9 hPa Calm     95 % 0.00 in /  0 mm
23:42 56.1 °F /  13.4 °C 54.7 °F /  12.6 °C 29.65 in /  1003.9 hPa Calm     95 % 0.00 in /  0 mm
23:43 56.1 °F /  13.4 °C 54.7 °F /  12.6 °C 29.64 in /  1003.6 hPa Calm     95 % 0.00 in /  0 mm
23:44 56.1 °F /  13.4 °C 54.7 °F /  12.6 °C 29.64 in /  1003.6 hPa Calm     95 % 0.00 in /  0 mm
23:45 56.1 °F /  13.4 °C 55.0 °F /  12.8 °C 29.64 in /  1003.6 hPa Calm     96 % 0.00 in /  0 mm
23:46 56.1 °F /  13.4 °C 55.0 °F /  12.8 °C 29.64 in /  1003.6 hPa Calm     96 % 0.00 in /  0 mm
23:47 56.1 °F /  13.4 °C 55.0 °F /  12.8 °C 29.64 in /  1003.6 hPa Calm     96 % 0.00 in /  0 mm
23:49 56.1 °F /  13.4 °C 55.0 °F /  12.8 °C 29.64 in /  1003.6 hPa Calm     96 % 0.00 in /  0 mm
23:50 56.1 °F /  13.4 °C 55.0 °F /  12.8 °C 29.64 in /  1003.6 hPa Calm     96 % 0.00 in /  0 mm
23:51 56.1 °F /  13.4 °C 55.0 °F /  12.8 °C 29.64 in /  1003.6 hPa Calm     96 % 0.00 in /  0 mm
23:52 56.1 °F /  13.4 °C 55.0 °F /  12.8 °C 29.64 in /  1003.6 hPa Calm     96 % 0.00 in /  0 mm
23:53 56.1 °F /  13.4 °C 55.0 °F /  12.8 °C 29.64 in /  1003.6 hPa Calm     96 % 0.00 in /  0 mm
23:54 56.1 °F /  13.4 °C 55.0 °F /  12.8 °C 29.63 in /  1003.3 hPa Calm     96 % 0.00 in /  0 mm
23:58 56.2 °F /  13.4 °C 55.1 °F /  12.8 °C 29.63 in /  1003.3 hPa Calm     96 % 0.00 in /  0 mm
Park Place, Exeter, Tulare County, California, USA
Compliments of Weather Underground - 3.75 mb